createdAt,value
2019-03-17T00:00:29.115Z,42.01
2019-03-17T00:03:00.681Z,41.77
2019-03-17T00:05:32.135Z,42.12
2019-03-17T00:08:02.588Z,41.40
2019-03-17T00:10:34.080Z,42.41
2019-03-17T00:13:06.297Z,41.86
2019-03-17T00:15:37.543Z,42.03
2019-03-17T00:18:15.336Z,41.79
2019-03-17T00:20:47.795Z,41.66
2019-03-17T00:23:19.572Z,41.24
2019-03-17T00:25:52.953Z,41.75
2019-03-17T00:28:31.264Z,43.54
2019-03-17T00:31:03.464Z,43.03
2019-03-17T00:33:39.075Z,43.47
2019-03-17T00:36:12.367Z,44.15
2019-03-17T00:38:45.872Z,43.80
2019-03-17T00:45:27.221Z,44.31
2019-03-17T00:51:05.280Z,42.78
2019-03-17T00:54:27.761Z,44.13
2019-03-17T00:56:58.361Z,43.54
2019-03-17T00:59:32.582Z,43.70
2019-03-17T01:02:02.777Z,42.98
2019-03-17T01:04:33.409Z,43.27
2019-03-17T01:07:14.078Z,42.31
2019-03-17T01:09:46.745Z,43.92
2019-03-17T01:12:23.735Z,43.38
2019-03-17T01:15:01.529Z,42.93
2019-03-17T01:17:40.458Z,42.60
2019-03-17T01:20:12.731Z,41.98
2019-03-17T01:22:53.774Z,41.26
2019-03-17T01:25:31.375Z,41.38
2019-03-17T01:28:16.023Z,40.70
2019-03-17T01:30:49.699Z,42.36
2019-03-17T01:33:29.868Z,42.87
2019-03-17T01:36:00.850Z,42.72
2019-03-17T01:38:32.430Z,42.86
2019-03-17T01:41:06.246Z,43.01
2019-03-17T01:43:36.773Z,43.55
2019-03-17T01:46:20.719Z,44.17
2019-03-17T01:48:53.237Z,44.73
2019-03-17T01:51:27.514Z,44.37
2019-03-17T01:53:59.147Z,43.51
2019-03-17T01:56:34.398Z,43.29
2019-03-17T01:59:31.765Z,43.26
2019-03-17T02:02:04.835Z,42.69
2019-03-17T02:04:35.753Z,44.32
2019-03-17T02:07:08.540Z,42.68
2019-03-17T02:09:39.759Z,43.25
2019-03-17T02:12:10.935Z,41.76
2019-03-17T02:14:41.545Z,41.64
2019-03-17T02:17:21.521Z,42.71
2019-03-17T02:19:53.813Z,42.62
2019-03-17T02:22:26.301Z,43.19
2019-03-17T02:25:03.252Z,41.88
2019-03-17T02:27:39.859Z,42.29
2019-03-17T02:30:12.039Z,41.48
2019-03-17T02:32:42.573Z,42.60
2019-03-17T02:35:15.253Z,41.68
2019-03-17T02:37:45.990Z,40.83
2019-03-17T02:40:20.156Z,41.87
2019-03-17T02:42:50.315Z,40.84
2019-03-17T02:45:21.116Z,40.65
2019-03-17T02:47:51.701Z,41.58
2019-03-17T02:50:22.590Z,41.62
2019-03-17T02:52:54.381Z,41.77
2019-03-17T02:55:25.779Z,42.65
2019-03-17T02:57:57.114Z,42.04
2019-03-17T03:00:28.978Z,42.15
2019-03-17T03:03:00.767Z,41.19
2019-03-17T03:05:33.281Z,41.92
2019-03-17T03:08:13.836Z,43.16
2019-03-17T03:10:46.569Z,41.30
2019-03-17T03:13:20.954Z,41.78
2019-03-17T03:15:51.906Z,42.14
2019-03-17T03:18:23.656Z,42.62
2019-03-17T03:20:56.038Z,42.63
2019-03-17T03:23:28.095Z,42.47
2019-03-17T03:25:59.954Z,42.54
2019-03-17T03:28:32.542Z,42.77
2019-03-17T03:31:02.720Z,43.96
2019-03-17T03:33:32.877Z,43.21
2019-03-17T03:36:10.615Z,43.21
2019-03-17T03:38:34.970Z,43.24
2019-03-17T03:41:06.109Z,42.67
2019-03-17T03:43:37.857Z,43.28
2019-03-17T03:46:08.698Z,43.57
2019-03-17T03:48:41.067Z,44.71
2019-03-17T03:51:12.689Z,45.55
2019-03-17T03:53:45.429Z,44.34
2019-03-17T03:56:29.243Z,44.74
2019-03-17T03:59:04.824Z,44.06
2019-03-17T04:01:37.994Z,43.21
2019-03-17T04:04:09.311Z,43.59
2019-03-17T04:06:39.491Z,43.80
2019-03-17T04:09:09.688Z,45.60
2019-03-17T04:11:39.910Z,44.30
2019-03-17T04:14:10.556Z,44.11
2019-03-17T04:16:41.872Z,43.58
2019-03-17T04:19:12.372Z,42.72
2019-03-17T04:21:42.851Z,41.94
2019-03-17T04:24:13.514Z,42.82
2019-03-17T04:26:44.123Z,42.63
2019-03-17T04:29:16.283Z,41.65
2019-03-17T04:31:47.815Z,42.19
2019-03-17T04:34:18.409Z,42.07
2019-03-17T04:36:48.669Z,42.27
2019-03-17T04:39:18.841Z,44.81
2019-03-17T04:41:49.534Z,44.56
2019-03-17T04:44:21.296Z,43.45
2019-03-17T04:46:56.164Z,43.49
2019-03-17T04:49:26.340Z,42.89
2019-03-17T04:51:57.210Z,43.24
2019-03-17T04:54:29.407Z,42.69
2019-03-17T04:57:02.934Z,42.23
2019-03-17T04:59:33.278Z,44.82
2019-03-17T05:02:06.756Z,43.28
2019-03-17T05:04:37.019Z,41.95
2019-03-17T05:07:08.494Z,43.35
2019-03-17T05:09:39.095Z,44.76
2019-03-17T05:12:10.417Z,44.66
2019-03-17T05:14:41.176Z,44.07
2019-03-17T05:17:13.430Z,44.90
2019-03-17T05:19:47.102Z,44.37
2019-03-17T05:22:17.687Z,44.16
2019-03-17T05:24:48.151Z,43.35
2019-03-17T05:27:25.387Z,43.59
2019-03-17T05:29:58.283Z,43.49
2019-03-17T05:32:30.907Z,44.57
2019-03-17T05:35:03.370Z,43.36
2019-03-17T05:37:35.063Z,44.50
2019-03-17T05:40:07.520Z,46.05
2019-03-17T05:42:40.671Z,44.73
2019-03-17T05:45:10.773Z,44.18
2019-03-17T05:47:44.571Z,46.93
2019-03-17T05:50:15.478Z,48.82
2019-03-17T05:52:46.292Z,48.17
2019-03-17T05:55:18.056Z,47.61
2019-03-17T05:57:49.254Z,47.98
2019-03-17T06:00:24.726Z,50.68
2019-03-17T06:02:55.841Z,50.83
2019-03-17T06:05:28.064Z,51.23
2019-03-17T06:07:58.695Z,52.95
2019-03-17T06:10:28.870Z,52.15
2019-03-17T06:12:59.061Z,53.48
2019-03-17T06:15:31.241Z,52.69
2019-03-17T06:18:02.823Z,52.96
2019-03-17T06:20:35.505Z,52.18
2019-03-17T06:23:09.084Z,54.03
2019-03-17T06:25:41.485Z,54.19
2019-03-17T06:28:26.918Z,54.02
2019-03-17T06:31:02.639Z,53.43
2019-03-17T06:33:35.748Z,52.92
2019-03-17T06:36:05.906Z,55.96
2019-03-17T06:38:36.968Z,55.79
2019-03-17T06:41:07.120Z,54.74
2019-03-17T06:43:37.701Z,55.18
2019-03-17T06:46:09.186Z,54.21
2019-03-17T06:48:40.916Z,53.00
2019-03-17T06:51:12.004Z,53.81
2019-03-17T06:53:55.923Z,54.80
2019-03-17T06:56:21.068Z,54.14
2019-03-17T06:58:53.695Z,57.24
2019-03-17T07:01:26.129Z,58.67
2019-03-17T07:03:58.741Z,55.91
2019-03-17T07:06:31.882Z,56.17
2019-03-17T07:09:05.329Z,58.48
2019-03-17T07:11:38.570Z,58.79
2019-03-17T07:14:16.375Z,59.71
2019-03-17T07:16:48.409Z,58.60
2019-03-17T07:19:20.047Z,60.56
2019-03-17T07:21:54.385Z,58.04
2019-03-17T07:24:25.293Z,57.15
2019-03-17T07:26:58.900Z,60.42
2019-03-17T07:29:30.561Z,58.45
2019-03-17T07:32:04.099Z,59.17
2019-03-17T07:34:34.292Z,60.06
2019-03-17T07:37:08.128Z,58.28
2019-03-17T07:39:49.061Z,58.46
2019-03-17T07:42:23.530Z,60.46
2019-03-17T07:44:56.879Z,60.18
2019-03-17T07:47:41.400Z,59.69
2019-03-17T07:50:15.032Z,58.57
2019-03-17T07:52:50.660Z,59.03
2019-03-17T07:55:23.603Z,58.92
2019-03-17T07:57:58.138Z,59.22
2019-03-17T08:00:32.112Z,61.17
2019-03-17T08:03:05.378Z,58.20
2019-03-17T08:05:36.467Z,56.91
2019-03-17T08:11:47.473Z,54.53
2019-03-17T08:14:31.020Z,54.55
2019-03-17T08:17:04.305Z,53.62
2019-03-17T08:19:36.035Z,53.15
2019-03-17T08:22:09.144Z,52.70
2019-03-17T08:24:43.289Z,50.87
2019-03-17T08:27:15.941Z,51.62
2019-03-17T08:29:49.762Z,50.80
2019-03-17T08:32:24.393Z,50.39
2019-03-17T08:34:55.091Z,51.90
2019-03-17T08:37:26.680Z,52.12
2019-03-17T08:40:04.289Z,53.89
2019-03-17T08:42:36.348Z,52.22
2019-03-17T08:45:08.194Z,52.20
2019-03-17T08:47:40.366Z,50.48
2019-03-17T08:50:12.694Z,49.99
2019-03-17T08:52:54.412Z,49.42
2019-03-17T08:55:28.655Z,49.78
2019-03-17T08:58:00.540Z,49.81
2019-03-17T09:00:30.968Z,49.40
2019-03-17T09:03:02.798Z,49.20
2019-03-17T09:05:38.223Z,48.64
2019-03-17T09:08:14.716Z,49.20
2019-03-17T09:10:54.316Z,48.81
2019-03-17T09:13:29.765Z,49.94
2019-03-17T09:19:25.866Z,49.54
2019-03-17T09:21:56.136Z,48.49
2019-03-17T09:24:32.200Z,48.84
2019-03-17T09:27:04.099Z,53.99
2019-03-17T09:29:36.823Z,51.58
2019-03-17T09:32:07.717Z,51.07
2019-03-17T09:34:39.916Z,51.10
2019-03-17T09:37:12.384Z,50.49
2019-03-17T09:39:45.390Z,52.21
2019-03-17T09:42:17.149Z,50.58
2019-03-17T09:44:48.189Z,49.59
2019-03-17T09:47:23.243Z,49.12
2019-03-17T09:49:53.441Z,47.90
2019-03-17T09:52:24.036Z,47.51
2019-03-17T09:55:03.737Z,46.67
2019-03-17T09:57:36.895Z,46.81
2019-03-17T10:00:10.764Z,46.28
2019-03-17T10:02:43.072Z,45.99
2019-03-17T10:05:16.985Z,46.35
2019-03-17T10:07:50.587Z,46.31
2019-03-17T10:10:27.881Z,45.85
2019-03-17T10:13:01.638Z,46.35
2019-03-17T10:15:35.265Z,45.84
2019-03-17T10:18:21.769Z,45.99
2019-03-17T10:20:57.940Z,45.63
2019-03-17T10:23:34.562Z,46.53
2019-03-17T10:26:07.830Z,45.74
2019-03-17T10:28:48.222Z,45.10
2019-03-17T10:31:22.054Z,44.86
2019-03-17T10:33:53.976Z,46.31
2019-03-17T10:36:26.438Z,47.42
2019-03-17T10:38:58.554Z,47.68
2019-03-17T10:41:28.684Z,46.99
2019-03-17T10:44:03.755Z,45.96
2019-03-17T10:46:35.383Z,46.19
2019-03-17T10:49:07.178Z,45.79
2019-03-17T10:51:47.994Z,45.59
2019-03-17T10:54:19.479Z,43.79
2019-03-17T10:56:50.465Z,42.18
2019-03-17T10:59:22.811Z,41.74
2019-03-17T11:01:54.264Z,41.19
2019-03-17T11:04:27.159Z,40.24
2019-03-17T11:06:59.135Z,40.24
2019-03-17T11:09:29.404Z,39.20
2019-03-17T11:11:59.937Z,40.93
2019-03-17T11:14:30.856Z,40.23
2019-03-17T11:17:01.303Z,41.01
2019-03-17T11:19:31.940Z,39.64
2019-03-17T11:22:05.299Z,39.89
2019-03-17T11:24:37.216Z,40.77
2019-03-17T11:27:09.802Z,40.66
2019-03-17T11:29:40.590Z,41.09
2019-03-17T11:32:11.223Z,42.96
2019-03-17T11:34:49.541Z,41.53
2019-03-17T11:37:24.572Z,40.34
2019-03-17T11:40:03.438Z,38.71
2019-03-17T11:42:36.202Z,37.67
2019-03-17T11:45:13.682Z,37.21
2019-03-17T11:47:44.827Z,36.89
2019-03-17T11:50:18.625Z,36.18
2019-03-17T11:52:53.767Z,35.41
2019-03-17T11:55:25.248Z,34.89
2019-03-17T11:57:55.794Z,33.63
2019-03-17T12:00:40.924Z,34.56
2019-03-17T12:03:33.906Z,32.93
2019-03-17T12:06:05.054Z,31.79
2019-03-17T12:08:36.713Z,29.18
2019-03-17T12:11:08.475Z,29.74
2019-03-17T12:13:42.808Z,31.28
2019-03-17T12:16:13.927Z,30.50
2019-03-17T12:18:45.837Z,29.24
2019-03-17T12:21:18.502Z,27.87
2019-03-17T12:23:51.534Z,27.79
2019-03-17T12:26:22.096Z,27.25
2019-03-17T12:28:53.878Z,26.81
2019-03-17T12:31:26.622Z,26.45
2019-03-17T12:33:56.842Z,27.19
2019-03-17T12:36:28.899Z,25.99
2019-03-17T12:39:01.468Z,26.18
2019-03-17T12:41:38.195Z,26.57
2019-03-17T12:44:08.967Z,26.29
2019-03-17T12:46:40.709Z,26.37
2019-03-17T12:49:14.439Z,26.93
2019-03-17T12:51:59.424Z,28.24
2019-03-17T12:54:36.377Z,29.19
2019-03-17T12:57:09.512Z,26.28
2019-03-17T12:59:42.599Z,24.45
2019-03-17T13:02:15.658Z,21.38
2019-03-17T13:04:48.023Z,19.01
2019-03-17T13:07:19.488Z,17.55
2019-03-17T13:09:50.660Z,18.16
2019-03-17T13:12:22.398Z,21.37
2019-03-17T13:14:53.336Z,23.12
2019-03-17T13:17:26.337Z,23.12
2019-03-17T13:19:57.951Z,21.80
2019-03-17T13:22:28.664Z,21.04
2019-03-17T13:25:39.480Z,19.14
2019-03-17T13:28:16.069Z,18.13
2019-03-17T13:30:46.230Z,17.96
2019-03-17T13:33:17.416Z,17.33
2019-03-17T13:35:50.418Z,16.92
2019-03-17T13:38:22.599Z,19.60
2019-03-17T13:40:54.032Z,18.58
2019-03-17T13:43:25.393Z,19.06
2019-03-17T13:45:56.128Z,19.52
2019-03-17T13:48:29.334Z,20.66
2019-03-17T13:51:00.448Z,25.38
2019-03-17T13:53:31.625Z,25.38
2019-03-17T13:56:02.538Z,26.20
2019-03-17T13:58:32.757Z,28.86
2019-03-17T14:01:02.917Z,29.45
2019-03-17T14:03:34.593Z,30.18
2019-03-17T14:06:05.147Z,27.23
2019-03-17T14:08:36.086Z,23.76
2019-03-17T14:11:09.015Z,21.59
2019-03-17T14:13:40.783Z,21.12
2019-03-17T14:16:11.013Z,19.77
2019-03-17T14:18:41.606Z,18.22
2019-03-17T14:21:11.791Z,16.98
2019-03-17T14:23:42.022Z,16.52
2019-03-17T14:26:12.201Z,17.10
2019-03-17T14:28:43.353Z,17.98
2019-03-17T14:31:13.552Z,17.16
2019-03-17T14:33:43.728Z,18.70
2019-03-17T14:36:14.726Z,18.36
2019-03-17T14:38:45.677Z,18.97
2019-03-17T14:41:17.269Z,20.42
2019-03-17T14:43:48.998Z,21.80
2019-03-17T14:46:20.994Z,23.20
2019-03-17T14:48:53.620Z,23.19
2019-03-17T14:51:24.256Z,23.75
2019-03-17T14:53:59.260Z,24.39
2019-03-17T14:56:32.587Z,25.28
2019-03-17T14:59:03.241Z,27.50
2019-03-17T15:01:38.961Z,27.31
2019-03-17T15:04:09.220Z,28.58
2019-03-17T15:06:40.573Z,27.82
2019-03-17T15:09:10.784Z,28.94
2019-03-17T15:11:41.684Z,28.62
2019-03-17T15:14:11.855Z,31.44
2019-03-17T15:16:46.485Z,31.70
2019-03-17T15:19:16.633Z,32.42
2019-03-17T15:21:46.787Z,34.81
2019-03-17T15:24:19.981Z,36.79
2019-03-17T15:26:50.590Z,39.84
2019-03-17T15:29:23.389Z,40.93
2019-03-17T15:31:54.068Z,42.16
2019-03-17T15:34:24.217Z,41.03
2019-03-17T15:36:54.805Z,40.20
2019-03-17T15:39:25.011Z,39.90
2019-03-17T15:41:57.420Z,39.61
2019-03-17T15:44:29.171Z,41.08
2019-03-17T15:47:01.380Z,41.92
2019-03-17T15:49:34.676Z,39.87
2019-03-17T15:52:06.059Z,39.69
2019-03-17T15:54:37.171Z,38.10
2019-03-17T15:57:07.343Z,38.59
2019-03-17T15:59:37.512Z,38.02
2019-03-17T16:02:07.673Z,37.37
2019-03-17T16:04:38.818Z,37.35
2019-03-17T16:07:11.283Z,38.20
2019-03-17T16:09:43.581Z,37.34
2019-03-17T16:12:15.997Z,37.79
2019-03-17T16:14:46.612Z,39.09
2019-03-17T16:17:17.035Z,37.65
2019-03-17T16:19:47.646Z,37.50
2019-03-17T16:22:17.788Z,38.13
2019-03-17T16:24:49.498Z,37.35
2019-03-17T16:27:21.974Z,38.36
2019-03-17T16:29:52.517Z,38.21
2019-03-17T16:32:25.405Z,38.28
2019-03-17T16:34:56.638Z,37.35
2019-03-17T16:37:26.834Z,38.41
2019-03-17T16:39:58.157Z,38.26
2019-03-17T16:42:32.144Z,38.17
2019-03-17T16:45:02.478Z,38.37
2019-03-17T16:47:34.877Z,38.65
2019-03-17T16:50:06.157Z,38.57
2019-03-17T16:52:39.705Z,40.76
2019-03-17T16:55:16.160Z,40.74
2019-03-17T16:57:50.606Z,40.48
2019-03-17T17:00:20.918Z,39.93
2019-03-17T17:02:52.267Z,39.97
2019-03-17T17:05:23.055Z,39.42
2019-03-17T17:07:53.737Z,39.15
2019-03-17T17:10:24.909Z,40.17
2019-03-17T17:12:55.533Z,42.33
2019-03-17T17:15:27.694Z,40.89
2019-03-17T17:17:58.224Z,40.89
2019-03-17T17:20:30.196Z,41.25
2019-03-17T17:23:00.730Z,40.05
2019-03-17T17:25:32.285Z,40.06
2019-03-17T17:28:02.440Z,40.56
2019-03-17T17:30:32.595Z,39.11
2019-03-17T17:33:03.213Z,39.73
2019-03-17T17:35:36.140Z,38.48
2019-03-17T17:38:06.306Z,38.89
2019-03-17T17:40:37.347Z,38.65
2019-03-17T17:43:09.023Z,38.45
2019-03-17T17:45:40.856Z,38.01
2019-03-17T17:48:11.737Z,37.72
2019-03-17T17:50:47.319Z,38.31
2019-03-17T17:53:20.558Z,39.08
2019-03-17T17:55:54.606Z,39.21
2019-03-17T17:58:25.338Z,38.82
2019-03-17T18:00:56.915Z,37.78
2019-03-17T18:03:27.111Z,38.16
2019-03-17T18:05:57.675Z,38.60
2019-03-17T18:08:28.410Z,38.44
2019-03-17T18:11:00.034Z,39.09
2019-03-17T18:13:30.195Z,41.35
2019-03-17T18:16:00.373Z,42.47
2019-03-17T18:18:30.987Z,44.68
2019-03-17T18:21:01.621Z,44.76
2019-03-17T18:23:35.021Z,48.47
2019-03-17T18:26:06.880Z,49.22
2019-03-17T18:28:39.883Z,49.90
2019-03-17T18:31:10.075Z,50.92
2019-03-17T18:33:42.690Z,51.12
2019-03-17T18:36:13.529Z,50.65
2019-03-17T18:38:45.377Z,51.32
2019-03-17T18:41:15.831Z,50.75
2019-03-17T18:43:47.092Z,50.04
2019-03-17T18:46:20.034Z,49.73
2019-03-17T18:48:52.346Z,49.91
2019-03-17T18:51:25.379Z,51.67
2019-03-17T18:54:01.211Z,51.51
2019-03-17T18:56:32.949Z,50.89
2019-03-17T18:59:18.004Z,50.59
2019-03-17T19:01:49.688Z,52.13
2019-03-17T19:04:22.779Z,51.23
2019-03-17T19:06:52.998Z,51.45
2019-03-17T19:09:23.671Z,50.78
2019-03-17T19:11:58.908Z,51.29
2019-03-17T19:14:29.118Z,50.60
2019-03-17T19:17:02.979Z,50.15
2019-03-17T19:19:33.586Z,51.18
2019-03-17T19:22:08.102Z,51.56
2019-03-17T19:24:46.430Z,53.45
2019-03-17T19:27:24.160Z,53.66
2019-03-17T19:29:57.719Z,53.66
2019-03-17T19:33:09.563Z,54.41
2019-03-17T19:35:47.591Z,53.45
2019-03-17T19:38:18.949Z,53.78
2019-03-17T19:40:49.882Z,54.33
2019-03-17T19:43:28.783Z,56.72
2019-03-17T19:46:12.378Z,57.96
2019-03-17T19:49:08.404Z,57.53
2019-03-17T19:51:41.801Z,58.60
2019-03-17T19:54:24.537Z,55.96
2019-03-17T19:57:28.756Z,55.94
2019-03-17T20:03:42.728Z,54.65
2019-03-17T20:06:13.496Z,55.15
2019-03-17T20:08:46.303Z,56.10
2019-03-17T20:12:19.433Z,56.13
2019-03-17T20:14:58.818Z,55.50
2019-03-17T20:18:09.355Z,55.02
2019-03-17T20:21:16.137Z,52.89
2019-03-17T20:23:50.504Z,54.76
2019-03-17T20:27:01.248Z,55.03
2019-03-17T20:30:18.991Z,55.35
2019-03-17T20:33:15.833Z,54.05
2019-03-17T20:35:48.998Z,52.44
2019-03-17T20:38:38.639Z,51.23
2019-03-17T20:42:00.677Z,53.37
2019-03-17T20:45:05.513Z,51.55
2019-03-17T20:48:19.992Z,50.06
2019-03-17T20:54:13.539Z,50.75
2019-03-17T20:56:48.686Z,49.33
2019-03-17T20:59:27.294Z,48.44
2019-03-17T21:02:02.332Z,48.11
2019-03-17T21:04:34.416Z,49.78
2019-03-17T21:07:05.012Z,49.69
2019-03-17T21:09:36.668Z,50.72
2019-03-17T21:12:11.459Z,50.23
2019-03-17T21:14:48.298Z,49.72
2019-03-17T21:17:19.950Z,49.14
2019-03-17T21:19:50.219Z,48.40
2019-03-17T21:22:22.032Z,48.96
2019-03-17T21:24:54.940Z,48.10
2019-03-17T21:27:26.685Z,48.81
2019-03-17T21:30:01.371Z,46.80
2019-03-17T21:32:31.927Z,47.33
2019-03-17T21:35:04.866Z,46.60
2019-03-17T21:37:35.689Z,47.51
2019-03-17T21:40:07.434Z,47.62
2019-03-17T21:42:46.627Z,47.10
2019-03-17T21:45:27.169Z,47.63
2019-03-17T21:48:02.582Z,47.16
2019-03-17T21:50:34.789Z,46.33
2019-03-17T21:53:04.997Z,46.43
2019-03-17T21:55:35.527Z,45.57
2019-03-17T21:58:08.611Z,45.40
2019-03-17T22:00:43.024Z,44.88
2019-03-17T22:03:19.774Z,44.75
2019-03-17T22:05:49.974Z,46.25
2019-03-17T22:08:22.987Z,46.66
2019-03-17T22:10:53.861Z,48.05
2019-03-17T22:13:26.044Z,46.46
2019-03-17T22:15:56.255Z,46.99
2019-03-17T22:18:35.915Z,48.04
2019-03-17T22:21:06.701Z,47.39
2019-03-17T22:23:39.432Z,47.40
2019-03-17T22:26:09.584Z,47.00
2019-03-17T22:28:43.507Z,46.31
2019-03-17T22:31:16.931Z,46.44
2019-03-17T22:33:51.464Z,46.31
2019-03-17T22:36:21.723Z,46.19
2019-03-17T22:38:57.049Z,46.10
2019-03-17T22:41:36.693Z,46.38
2019-03-17T22:44:23.941Z,45.50
2019-03-17T22:46:46.875Z,45.55
2019-03-17T22:49:40.950Z,45.94
2019-03-17T22:52:14.197Z,45.68
2019-03-17T22:54:51.745Z,45.57
2019-03-17T23:00:59.210Z,45.37
2019-03-17T23:03:30.492Z,45.38
2019-03-17T23:06:01.959Z,45.64
2019-03-17T23:08:38.289Z,45.11
2019-03-17T23:11:11.353Z,45.88
2019-03-17T23:13:46.646Z,44.95
2019-03-17T23:16:21.276Z,46.51
2019-03-17T23:18:57.134Z,46.22
2019-03-17T23:21:28.873Z,46.11
2019-03-17T23:24:00.945Z,47.57
2019-03-17T23:26:31.169Z,47.61
2019-03-17T23:29:02.346Z,47.48
2019-03-17T23:31:32.639Z,48.45
2019-03-17T23:37:23.034Z,47.54
2019-03-17T23:39:57.000Z,46.70
2019-03-17T23:43:09.160Z,46.74
2019-03-17T23:47:08.288Z,45.66
2019-03-17T23:50:26.262Z,45.92
2019-03-17T23:54:00.279Z,47.80
2019-03-17T23:56:37.474Z,48.63
2019-03-17T23:59:12.363Z,47.16
